createdAt,value
2022-10-23T00:00:30.268Z,12.30
2022-10-23T00:01:42.382Z,12.31
2022-10-23T00:02:44.583Z,12.31
2022-10-23T00:03:47.572Z,12.32
2022-10-23T00:04:52.838Z,12.35
2022-10-23T00:05:54.570Z,12.36
2022-10-23T00:06:56.447Z,12.35
2022-10-23T00:08:00.317Z,12.35
2022-10-23T00:09:04.197Z,12.38
2022-10-23T00:10:06.487Z,12.36
2022-10-23T00:11:14.526Z,12.37
2022-10-23T00:12:16.221Z,12.42
2022-10-23T00:13:17.901Z,12.42
2022-10-23T00:14:23.043Z,12.43
2022-10-23T00:15:27.527Z,12.40
2022-10-23T00:16:29.657Z,12.42
2022-10-23T00:17:32.848Z,12.40
2022-10-23T00:18:35.082Z,12.40
2022-10-23T00:19:36.819Z,12.33
2022-10-23T00:20:38.595Z,12.31
2022-10-23T00:21:40.694Z,12.21
2022-10-23T00:22:42.499Z,12.31
2022-10-23T00:23:44.930Z,12.34
2022-10-23T00:24:46.701Z,12.36
2022-10-23T00:25:48.448Z,12.35
2022-10-23T00:26:51.043Z,12.35
2022-10-23T00:27:52.733Z,12.36
2022-10-23T00:28:55.356Z,12.41
2022-10-23T00:29:57.080Z,12.38
2022-10-23T00:31:02.560Z,12.26
2022-10-23T00:32:04.422Z,12.43
2022-10-23T00:33:06.428Z,12.45
2022-10-23T00:34:08.766Z,12.48
2022-10-23T00:35:10.876Z,12.48
2022-10-23T00:36:14.880Z,12.51
2022-10-23T00:37:16.603Z,12.49
2022-10-23T00:38:18.376Z,12.53
2022-10-23T00:39:20.078Z,12.55
2022-10-23T00:40:21.826Z,12.55
2022-10-23T00:41:28.672Z,12.54
2022-10-23T00:42:30.596Z,12.50
2022-10-23T00:43:33.082Z,12.53
2022-10-23T00:44:34.687Z,12.48
2022-10-23T00:45:36.471Z,12.33
2022-10-23T00:46:39.409Z,12.31
2022-10-23T00:47:41.142Z,12.34
2022-10-23T00:48:42.919Z,12.41
2022-10-23T00:49:44.637Z,12.40
2022-10-23T00:50:47.865Z,12.37
2022-10-23T00:51:57.032Z,12.44
2022-10-23T00:53:02.497Z,12.47
2022-10-23T00:55:28.426Z,12.44
2022-10-23T00:56:31.820Z,12.49
2022-10-23T00:57:33.531Z,12.48
2022-10-23T00:58:35.255Z,12.49
2022-10-23T00:59:37.081Z,12.49
2022-10-23T01:00:48.893Z,12.50
2022-10-23T01:01:50.742Z,12.54
2022-10-23T01:02:53.288Z,12.51
2022-10-23T01:03:56.024Z,12.51
2022-10-23T01:04:57.756Z,12.52
2022-10-23T01:06:27.453Z,12.48
2022-10-23T01:07:52.668Z,12.48
2022-10-23T01:09:18.027Z,12.48
2022-10-23T01:11:15.399Z,12.47
2022-10-23T01:12:29.887Z,12.46
2022-10-23T01:15:11.672Z,12.45
2022-10-23T01:16:27.302Z,12.46
2022-10-23T01:18:21.218Z,12.43
2022-10-23T01:19:43.942Z,12.43
2022-10-23T01:20:50.427Z,12.41
2022-10-23T01:22:00.577Z,12.38
2022-10-23T01:23:23.925Z,12.34
2022-10-23T01:24:37.711Z,12.24
2022-10-23T01:25:52.002Z,12.23
2022-10-23T01:27:19.946Z,12.18
2022-10-23T01:28:41.873Z,12.09
2022-10-23T01:29:49.878Z,12.07
2022-10-23T01:30:51.701Z,12.03
2022-10-23T01:32:08.258Z,12.05
2022-10-23T01:33:33.598Z,12.04
2022-10-23T01:34:54.173Z,12.06
2022-10-23T01:36:04.305Z,12.09
2022-10-23T01:37:11.778Z,12.10
2022-10-23T01:38:19.966Z,12.08
2022-10-23T01:39:34.361Z,12.07
2022-10-23T01:40:49.028Z,12.05
2022-10-23T01:41:56.042Z,12.02
2022-10-23T01:43:04.567Z,12.03
2022-10-23T01:44:16.566Z,12.05
2022-10-23T01:45:25.635Z,12.02
2022-10-23T01:46:28.203Z,11.83
2022-10-23T01:47:33.732Z,11.75
2022-10-23T01:48:37.289Z,11.66
2022-10-23T01:49:42.135Z,11.67
2022-10-23T01:50:46.022Z,11.63
2022-10-23T01:51:53.068Z,11.66
2022-10-23T01:52:54.816Z,11.67
2022-10-23T01:53:59.958Z,11.72
2022-10-23T01:55:02.094Z,11.69
2022-10-23T01:56:07.588Z,11.77
2022-10-23T01:57:13.164Z,11.71
2022-10-23T01:58:16.357Z,11.73
2022-10-23T01:59:23.463Z,11.73
2022-10-23T02:00:25.399Z,11.74
2022-10-23T02:01:30.205Z,11.77
2022-10-23T02:02:34.329Z,11.77
2022-10-23T02:03:39.375Z,11.79
2022-10-23T02:04:55.461Z,11.80
2022-10-23T02:05:57.651Z,11.75
2022-10-23T02:06:59.506Z,11.83
2022-10-23T02:08:01.856Z,11.82
2022-10-23T02:09:04.800Z,11.75
2022-10-23T02:10:08.803Z,11.70
2022-10-23T02:11:14.569Z,11.68
2022-10-23T02:12:30.308Z,11.56
2022-10-23T02:13:44.299Z,11.69
2022-10-23T02:14:57.758Z,11.70
2022-10-23T02:16:14.619Z,11.65
2022-10-23T02:17:29.674Z,11.64
2022-10-23T02:19:06.641Z,11.65
2022-10-23T02:20:22.697Z,11.67
2022-10-23T02:21:34.959Z,11.68
2022-10-23T02:22:47.325Z,11.68
2022-10-23T02:23:56.169Z,11.74
2022-10-23T02:25:06.192Z,11.76
2022-10-23T02:26:17.140Z,11.77
2022-10-23T02:27:45.422Z,11.76
2022-10-23T02:28:54.299Z,11.75
2022-10-23T02:30:05.464Z,11.73
2022-10-23T02:31:10.254Z,11.71
2022-10-23T02:32:14.714Z,11.71
2022-10-23T02:33:17.697Z,11.65
2022-10-23T02:34:19.496Z,11.73
2022-10-23T02:35:23.763Z,11.74
2022-10-23T02:36:25.444Z,11.65
2022-10-23T02:37:27.222Z,11.65
2022-10-23T02:38:31.556Z,11.67
2022-10-23T02:39:33.388Z,11.64
2022-10-23T02:40:41.263Z,11.68
2022-10-23T02:42:01.139Z,11.58
2022-10-23T02:43:23.619Z,11.63
2022-10-23T02:44:25.309Z,11.67
2022-10-23T02:45:36.669Z,11.68
2022-10-23T02:46:53.731Z,11.66
2022-10-23T02:48:21.406Z,11.61
2022-10-23T02:49:35.934Z,11.76
2022-10-23T02:50:40.670Z,11.81
2022-10-23T02:52:06.081Z,11.93
2022-10-23T02:53:29.675Z,12.09
2022-10-23T02:54:43.254Z,12.21
2022-10-23T02:56:11.474Z,12.35
2022-10-23T02:57:25.509Z,12.57
2022-10-23T02:58:29.981Z,12.87
2022-10-23T02:59:45.657Z,13.02
2022-10-23T03:00:54.093Z,13.14
2022-10-23T03:02:13.885Z,13.22
2022-10-23T03:03:31.822Z,13.33
2022-10-23T03:04:34.770Z,13.28
2022-10-23T03:05:40.773Z,13.17
2022-10-23T03:06:42.977Z,12.98
2022-10-23T03:07:46.204Z,12.78
2022-10-23T03:09:09.670Z,12.67
2022-10-23T03:10:11.824Z,12.52
2022-10-23T03:11:13.534Z,12.40
2022-10-23T03:12:15.219Z,12.32
2022-10-23T03:13:17.455Z,12.26
2022-10-23T03:14:19.739Z,12.27
2022-10-23T03:15:21.536Z,12.22
2022-10-23T03:16:23.284Z,12.06
2022-10-23T03:17:25.699Z,12.05
2022-10-23T03:18:27.491Z,12.07
2022-10-23T03:19:29.174Z,12.04
2022-10-23T03:20:31.037Z,12.07
2022-10-23T03:21:32.718Z,12.03
2022-10-23T03:22:34.800Z,12.04
2022-10-23T03:23:36.683Z,11.95
2022-10-23T03:24:38.487Z,11.91
2022-10-23T03:25:40.229Z,11.89
2022-10-23T03:26:41.946Z,11.75
2022-10-23T03:27:43.641Z,11.76
2022-10-23T03:28:45.355Z,11.79
2022-10-23T03:29:47.207Z,11.80
2022-10-23T03:30:48.992Z,11.87
2022-10-23T03:31:50.665Z,12.01
2022-10-23T03:32:52.351Z,12.16
2022-10-23T03:33:54.025Z,12.41
2022-10-23T03:34:55.819Z,12.74
2022-10-23T03:35:57.577Z,13.07
2022-10-23T03:36:59.268Z,13.45
2022-10-23T03:38:00.965Z,13.88
2022-10-23T03:39:04.199Z,14.24
2022-10-23T03:40:06.548Z,14.51
2022-10-23T03:41:08.285Z,14.85
2022-10-23T03:42:10.032Z,15.12
2022-10-23T03:43:11.769Z,15.34
2022-10-23T03:44:13.493Z,15.63
2022-10-23T03:45:15.285Z,15.82
2022-10-23T03:46:17.005Z,16.14
2022-10-23T03:47:18.726Z,16.40
2022-10-23T03:48:20.403Z,16.56
2022-10-23T03:49:22.300Z,16.67
2022-10-23T03:50:24.637Z,16.86
2022-10-23T03:51:27.401Z,16.95
2022-10-23T03:52:29.173Z,16.67
2022-10-23T03:53:30.914Z,16.56
2022-10-23T03:54:33.947Z,16.42
2022-10-23T03:55:35.665Z,16.28
2022-10-23T03:56:37.375Z,16.10
2022-10-23T03:57:39.048Z,15.94
2022-10-23T03:58:40.750Z,15.76
2022-10-23T03:59:42.509Z,15.54
2022-10-23T04:00:44.290Z,15.42
2022-10-23T04:01:46.679Z,15.18
2022-10-23T04:02:49.057Z,15.09
2022-10-23T04:03:50.806Z,15.03
2022-10-23T04:04:52.565Z,15.02
2022-10-23T04:05:54.295Z,15.04
2022-10-23T04:06:56.089Z,15.15
2022-10-23T04:07:57.959Z,15.27
2022-10-23T04:08:59.773Z,15.39
2022-10-23T04:10:01.478Z,15.61
2022-10-23T04:11:03.185Z,15.77
2022-10-23T04:12:05.331Z,15.95
2022-10-23T04:13:07.020Z,16.10
2022-10-23T04:14:12.208Z,16.23
2022-10-23T04:15:13.957Z,16.27
2022-10-23T04:16:15.966Z,16.39
2022-10-23T04:17:17.752Z,16.35
2022-10-23T04:18:19.830Z,16.34
2022-10-23T04:19:21.516Z,16.29
2022-10-23T04:20:23.272Z,16.28
2022-10-23T04:21:25.040Z,16.22
2022-10-23T04:22:28.388Z,16.14
2022-10-23T04:23:30.399Z,16.09
2022-10-23T04:24:32.131Z,16.02
2022-10-23T04:25:33.953Z,15.92
2022-10-23T04:26:35.713Z,15.92
2022-10-23T04:27:37.490Z,15.96
2022-10-23T04:28:39.299Z,15.94
2022-10-23T04:29:41.008Z,15.94
2022-10-23T04:30:42.786Z,15.93
2022-10-23T04:31:44.508Z,15.96
2022-10-23T04:32:46.220Z,15.94
2022-10-23T04:33:48.677Z,15.95
2022-10-23T04:34:50.365Z,15.93
2022-10-23T04:35:52.118Z,15.86
2022-10-23T04:36:53.814Z,15.86
2022-10-23T04:37:55.640Z,15.85
2022-10-23T04:38:57.324Z,15.85
2022-10-23T04:39:59.023Z,15.87
2022-10-23T04:41:00.750Z,15.89
2022-10-23T04:42:02.465Z,15.96
2022-10-23T04:43:04.607Z,16.02
2022-10-23T04:44:07.217Z,16.08
2022-10-23T04:45:09.146Z,16.26
2022-10-23T04:46:12.995Z,16.47
2022-10-23T04:47:14.759Z,16.59
2022-10-23T04:48:16.501Z,16.77
2022-10-23T04:49:18.200Z,16.96
2022-10-23T04:50:20.995Z,17.10
2022-10-23T04:51:22.701Z,17.16
2022-10-23T04:52:24.583Z,17.29
2022-10-23T04:53:27.405Z,17.37
2022-10-23T04:54:29.107Z,17.46
2022-10-23T04:55:30.820Z,17.63
2022-10-23T04:56:32.541Z,17.59
2022-10-23T04:57:34.286Z,17.85
2022-10-23T04:58:35.957Z,17.97
2022-10-23T04:59:37.626Z,17.98
2022-10-23T05:00:39.391Z,18.22
2022-10-23T05:01:41.164Z,18.18
2022-10-23T05:02:43.040Z,18.43
2022-10-23T05:03:44.999Z,18.43
2022-10-23T05:04:46.685Z,18.56
2022-10-23T05:05:48.535Z,18.62
2022-10-23T05:06:50.261Z,18.72
2022-10-23T05:07:52.009Z,18.80
2022-10-23T05:08:53.786Z,18.83
2022-10-23T05:09:55.478Z,18.93
2022-10-23T05:10:57.186Z,18.95
2022-10-23T05:11:58.903Z,18.99
2022-10-23T05:13:00.678Z,19.04
2022-10-23T05:14:02.424Z,19.09
2022-10-23T05:15:04.503Z,19.13
2022-10-23T05:16:06.258Z,19.21
2022-10-23T05:17:19.201Z,19.30
2022-10-23T05:18:23.867Z,19.32
2022-10-23T05:19:29.981Z,19.37
2022-10-23T05:20:35.933Z,19.49
2022-10-23T05:21:40.513Z,19.56
2022-10-23T05:22:44.627Z,19.62
2022-10-23T05:23:47.055Z,19.64
2022-10-23T05:24:50.612Z,19.73
2022-10-23T05:25:52.813Z,19.74
2022-10-23T05:26:54.558Z,19.77
2022-10-23T05:27:56.254Z,19.75
2022-10-23T05:28:58.045Z,19.81
2022-10-23T05:29:59.807Z,19.84
2022-10-23T05:31:03.739Z,19.88
2022-10-23T05:32:08.956Z,19.91
2022-10-23T05:33:11.575Z,19.93
2022-10-23T05:34:16.506Z,19.97
2022-10-23T05:35:22.088Z,20.03
2022-10-23T05:36:25.621Z,20.10
2022-10-23T05:37:28.083Z,20.08
2022-10-23T05:38:33.133Z,20.16
2022-10-23T05:39:35.219Z,20.15
2022-10-23T05:40:37.050Z,20.18
2022-10-23T05:41:38.764Z,20.21
2022-10-23T05:42:41.674Z,20.25
2022-10-23T05:43:43.699Z,20.25
2022-10-23T05:44:45.380Z,20.32
2022-10-23T05:45:47.091Z,20.26
2022-10-23T05:46:48.829Z,20.36
2022-10-23T05:47:50.633Z,20.37
2022-10-23T05:48:52.974Z,20.41
2022-10-23T05:49:54.787Z,20.45
2022-10-23T05:50:56.534Z,20.45
2022-10-23T05:51:58.263Z,20.51
2022-10-23T05:52:59.941Z,20.53
2022-10-23T05:54:01.624Z,20.55
2022-10-23T05:55:03.751Z,20.60
2022-10-23T05:56:08.638Z,20.63
2022-10-23T05:57:10.383Z,20.66
2022-10-23T05:58:12.168Z,20.71
2022-10-23T05:59:14.706Z,20.73
2022-10-23T06:00:17.829Z,20.76
2022-10-23T06:01:19.581Z,20.77
2022-10-23T06:02:21.335Z,20.81
2022-10-23T06:03:23.037Z,20.82
2022-10-23T06:04:24.897Z,20.88
2022-10-23T06:05:26.649Z,20.91
2022-10-23T06:06:28.407Z,20.88
2022-10-23T06:07:33.567Z,20.94
2022-10-23T06:08:37.485Z,20.98
2022-10-23T06:09:39.262Z,21.00
2022-10-23T06:10:40.977Z,21.01
2022-10-23T06:11:43.310Z,21.06
2022-10-23T06:12:44.986Z,21.08
2022-10-23T06:13:48.481Z,21.10
2022-10-23T06:14:50.969Z,21.13
2022-10-23T06:15:53.795Z,21.16
2022-10-23T06:16:55.570Z,21.13
2022-10-23T06:18:02.178Z,21.14
2022-10-23T06:19:04.458Z,21.16
2022-10-23T06:20:06.832Z,21.16
2022-10-23T06:21:09.468Z,21.15
2022-10-23T06:22:11.236Z,21.22
2022-10-23T06:23:13.130Z,21.20
2022-10-23T06:24:14.912Z,21.24
2022-10-23T06:25:16.690Z,21.25
2022-10-23T06:26:19.738Z,21.31
2022-10-23T06:27:21.939Z,21.30
2022-10-23T06:28:23.731Z,21.30
2022-10-23T06:29:25.469Z,21.31
2022-10-23T06:30:27.180Z,21.37
2022-10-23T06:31:28.980Z,21.40
2022-10-23T06:32:33.672Z,21.40
2022-10-23T06:33:35.735Z,21.43
2022-10-23T06:34:37.417Z,21.51
2022-10-23T06:35:39.156Z,21.51
2022-10-23T06:36:40.888Z,21.62
2022-10-23T06:37:42.581Z,21.69
2022-10-23T06:38:44.494Z,21.74
2022-10-23T06:39:46.178Z,21.90
2022-10-23T06:40:53.809Z,22.04
2022-10-23T06:41:55.582Z,22.26
2022-10-23T06:42:57.465Z,22.39
2022-10-23T06:43:59.173Z,22.49
2022-10-23T06:45:04.770Z,22.68
2022-10-23T06:46:10.048Z,22.90
2022-10-23T06:47:13.233Z,23.05
2022-10-23T06:48:15.966Z,23.06
2022-10-23T06:49:17.833Z,23.25
2022-10-23T06:50:19.542Z,23.43
2022-10-23T06:51:22.524Z,23.52
2022-10-23T06:52:42.089Z,23.52
2022-10-23T06:53:46.305Z,23.69
2022-10-23T06:54:48.044Z,23.76
2022-10-23T06:55:52.898Z,24.00
2022-10-23T06:56:57.197Z,24.15
2022-10-23T06:57:59.448Z,24.26
2022-10-23T06:59:01.736Z,24.42
2022-10-23T07:00:04.430Z,24.53
2022-10-23T07:01:09.813Z,24.58
2022-10-23T07:02:12.950Z,24.71
2022-10-23T07:03:14.662Z,24.93
2022-10-23T07:04:16.533Z,24.96
2022-10-23T07:05:19.366Z,25.10
2022-10-23T07:06:21.049Z,25.31
2022-10-23T07:07:22.766Z,25.50
2022-10-23T07:08:24.491Z,25.58
2022-10-23T07:09:26.196Z,25.63
2022-10-23T07:10:27.926Z,25.67
2022-10-23T07:11:29.629Z,25.65
2022-10-23T07:12:31.340Z,25.71
2022-10-23T07:13:34.287Z,25.90
2022-10-23T07:14:35.976Z,26.02
2022-10-23T07:15:39.070Z,26.27
2022-10-23T07:16:40.827Z,26.55
2022-10-23T07:17:42.526Z,26.70
2022-10-23T07:18:44.913Z,26.62
2022-10-23T07:19:47.509Z,26.69
2022-10-23T07:20:50.506Z,26.74
2022-10-23T07:21:52.413Z,26.77
2022-10-23T07:22:55.764Z,26.60
2022-10-23T07:23:58.243Z,26.53
2022-10-23T07:24:59.925Z,26.66
2022-10-23T07:26:10.140Z,26.87
2022-10-23T07:27:11.999Z,26.92
2022-10-23T07:28:13.697Z,26.99
2022-10-23T07:29:15.435Z,26.92
2022-10-23T07:30:17.540Z,26.99
2022-10-23T07:31:20.531Z,27.13
2022-10-23T07:32:24.858Z,27.15
2022-10-23T07:33:26.630Z,27.01
2022-10-23T07:34:28.642Z,27.07
2022-10-23T07:35:33.041Z,27.24
2022-10-23T07:36:37.362Z,27.51
2022-10-23T07:37:39.180Z,27.48
2022-10-23T07:38:41.219Z,27.49
2022-10-23T07:39:42.931Z,27.46
2022-10-23T07:40:45.226Z,27.46
2022-10-23T07:41:46.939Z,27.48
2022-10-23T07:42:48.708Z,27.87
2022-10-23T07:43:50.387Z,28.10
2022-10-23T07:44:52.074Z,27.95
2022-10-23T07:45:54.550Z,28.12
2022-10-23T07:46:56.228Z,28.09
2022-10-23T07:47:57.914Z,28.16
2022-10-23T07:48:59.679Z,28.45
2022-10-23T07:50:01.355Z,28.75
2022-10-23T07:51:08.567Z,28.73
2022-10-23T07:52:11.200Z,28.75
2022-10-23T07:53:24.665Z,28.93
2022-10-23T07:54:26.338Z,28.88
2022-10-23T07:55:28.043Z,28.95
2022-10-23T07:56:32.969Z,28.97
2022-10-23T07:57:34.636Z,29.28
2022-10-23T07:58:36.366Z,29.30
2022-10-23T07:59:38.250Z,29.31
2022-10-23T08:00:41.608Z,29.26
2022-10-23T08:01:43.764Z,29.41
2022-10-23T08:02:45.647Z,29.27
2022-10-23T08:03:47.743Z,29.27
2022-10-23T08:04:50.648Z,29.35
2022-10-23T08:05:54.062Z,29.16
2022-10-23T08:06:56.455Z,29.05
2022-10-23T08:07:58.140Z,29.38
2022-10-23T08:09:02.227Z,29.33
2022-10-23T08:10:07.508Z,29.52
2022-10-23T08:11:12.771Z,29.57
2022-10-23T08:12:14.550Z,29.59
2022-10-23T08:13:16.505Z,29.52
2022-10-23T08:14:18.179Z,29.30
2022-10-23T08:15:19.859Z,29.28
2022-10-23T08:16:22.540Z,29.15
2022-10-23T08:17:26.336Z,28.99
2022-10-23T08:18:29.953Z,28.99
2022-10-23T08:19:31.671Z,29.17
2022-10-23T08:20:37.516Z,29.27
2022-10-23T08:21:39.251Z,29.25
2022-10-23T08:22:41.104Z,29.34
2022-10-23T08:23:43.469Z,29.33
2022-10-23T08:24:45.185Z,29.32
2022-10-23T08:25:47.456Z,29.57
2022-10-23T08:26:50.405Z,29.42
2022-10-23T08:27:52.252Z,29.38
2022-10-23T08:28:54.005Z,29.31
2022-10-23T08:29:55.670Z,29.20
2022-10-23T08:30:57.433Z,29.13
2022-10-23T08:31:59.165Z,29.21
2022-10-23T08:33:06.068Z,29.38
2022-10-23T08:34:08.027Z,29.52
2022-10-23T08:35:09.924Z,29.85
2022-10-23T08:36:16.924Z,29.91
2022-10-23T08:37:18.669Z,29.91
2022-10-23T08:38:20.353Z,29.76
2022-10-23T08:39:22.052Z,29.92
2022-10-23T08:40:25.529Z,29.56
2022-10-23T08:41:34.307Z,29.61
2022-10-23T08:42:38.758Z,29.80
2022-10-23T08:43:45.912Z,30.07
2022-10-23T08:44:52.978Z,30.35
2022-10-23T08:46:00.195Z,30.36
2022-10-23T08:47:11.805Z,30.27
2022-10-23T08:48:32.218Z,30.32
2022-10-23T08:49:50.935Z,30.16
2022-10-23T08:51:29.194Z,29.93
2022-10-23T08:52:44.476Z,29.96
2022-10-23T08:54:45.204Z,30.04
2022-10-23T08:56:04.577Z,30.16
2022-10-23T08:57:17.465Z,30.34
2022-10-23T08:58:29.416Z,30.40
2022-10-23T08:59:40.181Z,30.45
2022-10-23T09:00:43.399Z,30.18
2022-10-23T09:01:54.271Z,30.03
2022-10-23T09:02:56.298Z,29.96
2022-10-23T09:03:58.115Z,30.10
2022-10-23T09:04:59.835Z,30.39
2022-10-23T09:06:08.992Z,30.43
2022-10-23T09:07:34.140Z,30.40
2022-10-23T09:08:41.924Z,30.82
2022-10-23T09:10:11.040Z,30.88
2022-10-23T09:11:21.151Z,30.91
2022-10-23T09:12:26.099Z,30.80
2022-10-23T09:13:46.651Z,30.82
2022-10-23T09:15:00.596Z,30.92
2022-10-23T09:16:34.925Z,30.96
2022-10-23T09:17:41.311Z,30.89
2022-10-23T09:18:43.916Z,30.99
2022-10-23T09:19:46.811Z,31.19
2022-10-23T09:20:48.756Z,31.31
2022-10-23T09:21:50.622Z,31.22
2022-10-23T09:22:58.287Z,31.30
2022-10-23T09:23:59.974Z,31.16
2022-10-23T09:25:01.656Z,31.46
2022-10-23T09:26:12.920Z,31.41
2022-10-23T09:27:17.813Z,31.27
2022-10-23T09:28:25.659Z,31.34
2022-10-23T09:29:36.228Z,31.45
2022-10-23T09:30:40.774Z,31.57
2022-10-23T09:31:56.514Z,31.56
2022-10-23T09:32:59.111Z,31.72
2022-10-23T09:34:02.313Z,31.64
2022-10-23T09:35:05.834Z,31.56
2022-10-23T09:36:18.997Z,31.38
2022-10-23T09:37:26.869Z,31.33
2022-10-23T09:38:39.825Z,31.52
2022-10-23T09:39:41.587Z,31.49
2022-10-23T09:40:43.786Z,31.20
2022-10-23T09:41:45.926Z,31.20
2022-10-23T09:43:00.009Z,31.19
2022-10-23T09:44:04.392Z,31.28
2022-10-23T09:45:22.520Z,31.16
2022-10-23T09:46:24.232Z,31.08
2022-10-23T09:47:26.192Z,31.08
2022-10-23T09:48:28.045Z,31.06
2022-10-23T09:49:32.124Z,30.86
2022-10-23T09:50:33.860Z,30.50
2022-10-23T09:51:35.678Z,30.34
2022-10-23T09:52:39.135Z,30.25
2022-10-23T09:53:56.978Z,30.07
2022-10-23T09:55:01.741Z,30.29
2022-10-23T09:56:27.997Z,30.46
2022-10-23T09:57:38.481Z,30.63
2022-10-23T09:58:53.424Z,30.83
2022-10-23T09:59:59.790Z,30.76
2022-10-23T10:01:01.893Z,30.87
2022-10-23T10:02:04.777Z,31.01
2022-10-23T10:03:19.413Z,30.98
2022-10-23T10:04:39.175Z,31.12
2022-10-23T10:05:44.018Z,31.27
2022-10-23T10:06:45.826Z,31.05
2022-10-23T10:08:14.842Z,30.93
2022-10-23T10:09:17.931Z,30.76
2022-10-23T10:10:19.698Z,30.64
2022-10-23T10:11:46.342Z,30.88
2022-10-23T10:12:54.952Z,30.92
2022-10-23T10:14:14.924Z,30.80
2022-10-23T10:15:28.576Z,30.68
2022-10-23T10:16:52.880Z,30.60
2022-10-23T10:17:54.519Z,30.50
2022-10-23T10:19:10.899Z,30.46
2022-10-23T10:20:18.458Z,30.50
2022-10-23T10:21:31.334Z,30.63
2022-10-23T10:22:44.223Z,30.72
2022-10-23T10:23:53.754Z,30.84
2022-10-23T10:25:23.712Z,30.72
2022-10-23T10:26:42.067Z,30.72
2022-10-23T10:28:08.606Z,30.84
2022-10-23T10:29:31.455Z,30.85
2022-10-23T10:30:57.626Z,30.77
2022-10-23T10:32:06.083Z,30.65
2022-10-23T10:33:39.053Z,30.65
2022-10-23T10:34:55.228Z,30.68
2022-10-23T10:36:10.533Z,30.79
2022-10-23T10:37:34.612Z,30.85
2022-10-23T10:38:46.594Z,30.83
2022-10-23T10:40:01.362Z,30.70
2022-10-23T10:41:06.116Z,30.59
2022-10-23T10:42:29.214Z,30.37
2022-10-23T10:44:09.336Z,30.06
2022-10-23T10:45:31.098Z,30.00
2022-10-23T10:46:49.364Z,29.92
2022-10-23T10:47:57.134Z,29.93
2022-10-23T10:49:07.615Z,29.93
2022-10-23T10:50:26.507Z,29.93
2022-10-23T10:52:01.365Z,29.70
2022-10-23T10:53:28.369Z,29.60
2022-10-23T10:54:59.678Z,29.40
2022-10-23T10:56:03.907Z,29.19
2022-10-23T10:57:34.600Z,29.03
2022-10-23T10:58:36.589Z,29.00
2022-10-23T10:59:42.714Z,28.99
2022-10-23T11:00:47.280Z,29.00
2022-10-23T11:01:58.855Z,29.03
2022-10-23T11:03:40.319Z,29.09
2022-10-23T11:04:49.010Z,29.03
2022-10-23T11:05:53.634Z,28.99
2022-10-23T11:06:56.738Z,28.93
2022-10-23T11:08:00.554Z,28.81
2022-10-23T11:09:20.417Z,28.75
2022-10-23T11:10:23.279Z,28.70
2022-10-23T11:11:33.064Z,28.60
2022-10-23T11:12:34.766Z,28.52
2022-10-23T11:13:42.197Z,28.35
2022-10-23T11:14:45.207Z,28.28
2022-10-23T11:15:47.440Z,28.30
2022-10-23T11:16:58.761Z,28.26
2022-10-23T11:18:04.737Z,28.14
2022-10-23T11:19:14.404Z,28.08
2022-10-23T11:20:34.788Z,28.10
2022-10-23T11:21:47.741Z,28.01
2022-10-23T11:23:18.045Z,28.00
2022-10-23T11:24:55.846Z,27.95
2022-10-23T11:26:23.349Z,27.76
2022-10-23T11:28:01.678Z,27.64
2022-10-23T11:29:30.527Z,27.44
2022-10-23T11:30:41.550Z,27.28
2022-10-23T11:32:05.418Z,27.08
2022-10-23T11:33:13.058Z,27.01
2022-10-23T11:34:17.914Z,27.00
2022-10-23T11:35:30.871Z,26.96
2022-10-23T11:36:41.648Z,26.90
2022-10-23T11:37:43.637Z,26.83
2022-10-23T11:38:50.984Z,26.82
2022-10-23T11:40:03.289Z,26.79
2022-10-23T11:41:19.930Z,26.72
2022-10-23T11:42:32.751Z,26.62
2022-10-23T11:43:55.547Z,26.60
2022-10-23T11:44:57.371Z,26.55
2022-10-23T11:46:11.153Z,26.59
2022-10-23T11:47:38.968Z,26.55
2022-10-23T11:48:43.889Z,26.52
2022-10-23T11:49:45.574Z,26.47
2022-10-23T11:50:47.522Z,26.50
2022-10-23T11:52:00.192Z,26.46
2022-10-23T11:53:15.226Z,26.38
2022-10-23T11:54:17.688Z,26.43
2022-10-23T11:55:30.915Z,26.42
2022-10-23T11:56:34.257Z,26.37
2022-10-23T11:57:36.033Z,26.27
2022-10-23T11:58:43.667Z,26.36
2022-10-23T11:59:45.293Z,26.38
2022-10-23T12:01:01.394Z,26.35
2022-10-23T12:02:21.245Z,26.31
2022-10-23T12:03:29.082Z,26.25
2022-10-23T12:04:41.426Z,26.20
2022-10-23T12:05:45.453Z,26.17
2022-10-23T12:07:00.086Z,26.10
2022-10-23T12:08:03.385Z,26.02
2022-10-23T12:09:09.340Z,26.01
2022-10-23T12:10:30.909Z,26.03
2022-10-23T12:11:45.367Z,26.01
2022-10-23T12:12:59.085Z,26.05
2022-10-23T12:14:00.855Z,26.03
2022-10-23T12:15:11.539Z,26.07
2022-10-23T12:16:13.991Z,26.07
2022-10-23T12:17:24.759Z,26.07
2022-10-23T12:18:27.601Z,26.02
2022-10-23T12:19:43.950Z,25.97
2022-10-23T12:20:54.215Z,26.02
2022-10-23T12:22:01.412Z,26.10
2022-10-23T12:23:23.143Z,26.12
2022-10-23T12:24:51.204Z,26.12
2022-10-23T12:26:01.620Z,26.05
2022-10-23T12:27:09.170Z,25.96
2022-10-23T12:28:19.801Z,25.90
2022-10-23T12:30:02.955Z,25.87
2022-10-23T12:31:20.862Z,25.87
2022-10-23T12:32:54.299Z,25.79
2022-10-23T12:34:19.168Z,25.83
2022-10-23T12:35:39.056Z,25.84
2022-10-23T12:37:19.610Z,25.85
2022-10-23T12:38:25.608Z,25.89
2022-10-23T12:39:37.514Z,25.86
2022-10-23T12:40:39.252Z,25.82
2022-10-23T12:41:42.807Z,25.89
2022-10-23T12:42:55.036Z,25.93
2022-10-23T12:44:01.159Z,25.96
2022-10-23T12:45:15.986Z,25.93
2022-10-23T12:46:46.905Z,25.90
2022-10-23T12:47:49.795Z,25.89
2022-10-23T12:48:54.100Z,25.88
2022-10-23T12:49:56.010Z,25.92
2022-10-23T12:50:57.733Z,25.92
2022-10-23T12:51:59.515Z,25.92
2022-10-23T12:53:04.501Z,25.92
2022-10-23T12:54:18.385Z,25.90
2022-10-23T12:55:20.262Z,25.87
2022-10-23T12:56:22.572Z,25.88
2022-10-23T12:57:28.216Z,25.86
2022-10-23T12:58:35.019Z,25.82
2022-10-23T12:59:38.697Z,25.83
2022-10-23T13:00:50.869Z,25.86
2022-10-23T13:01:54.504Z,25.86
2022-10-23T13:03:00.852Z,25.83
2022-10-23T13:04:14.032Z,25.87
2022-10-23T13:05:19.646Z,25.86
2022-10-23T13:06:22.933Z,25.86
2022-10-23T13:07:28.069Z,25.80
2022-10-23T13:08:44.755Z,25.81
2022-10-23T13:09:46.868Z,25.81
2022-10-23T13:10:49.789Z,25.75
2022-10-23T13:11:52.753Z,25.81
2022-10-23T13:13:01.942Z,25.81
2022-10-23T13:14:12.069Z,25.84
2022-10-23T13:15:19.395Z,25.87
2022-10-23T13:16:23.750Z,25.85
2022-10-23T13:17:45.832Z,25.87
2022-10-23T13:18:47.992Z,25.81
2022-10-23T13:19:49.673Z,25.87
2022-10-23T13:20:54.123Z,25.91
2022-10-23T13:21:56.102Z,25.92
2022-10-23T13:23:09.856Z,25.94
2022-10-23T13:24:20.761Z,25.95
2022-10-23T13:25:25.013Z,25.97
2022-10-23T13:26:42.873Z,25.96
2022-10-23T13:27:44.961Z,26.01
2022-10-23T13:28:47.077Z,26.05
2022-10-23T13:29:48.779Z,26.05
2022-10-23T13:31:12.464Z,26.10
2022-10-23T13:32:25.561Z,26.09
2022-10-23T13:33:42.093Z,26.11
2022-10-23T13:35:04.044Z,26.09
2022-10-23T13:36:14.911Z,26.09
2022-10-23T13:37:34.562Z,26.12
2022-10-23T13:38:40.611Z,26.12
2022-10-23T13:39:42.294Z,26.16
2022-10-23T13:40:43.976Z,26.14
2022-10-23T13:41:46.957Z,26.18
2022-10-23T13:42:50.429Z,26.17
2022-10-23T13:43:52.134Z,26.22
2022-10-23T13:44:54.021Z,26.26
2022-10-23T13:45:55.856Z,26.31
2022-10-23T13:46:57.621Z,26.33
2022-10-23T13:47:59.296Z,26.34
2022-10-23T13:49:01.032Z,26.31
2022-10-23T13:50:02.757Z,26.32
2022-10-23T13:51:24.100Z,26.30
2022-10-23T13:52:25.807Z,26.23
2022-10-23T13:53:27.544Z,26.18
2022-10-23T13:54:29.520Z,26.20
2022-10-23T13:55:31.835Z,26.19
2022-10-23T13:56:33.534Z,26.24
2022-10-23T13:57:35.276Z,26.23
2022-10-23T13:58:37.009Z,26.23
2022-10-23T13:59:38.684Z,26.13
2022-10-23T14:00:40.824Z,26.14
2022-10-23T14:01:43.975Z,26.14
2022-10-23T14:02:45.837Z,26.08
2022-10-23T14:03:48.211Z,26.06
2022-10-23T14:04:51.067Z,26.08
2022-10-23T14:05:53.245Z,26.05
2022-10-23T14:06:58.642Z,25.95
2022-10-23T14:08:00.440Z,25.89
2022-10-23T14:09:02.166Z,26.00
2022-10-23T14:10:04.627Z,25.92
2022-10-23T14:11:06.852Z,25.86
2022-10-23T14:12:08.674Z,25.85
2022-10-23T14:13:10.406Z,25.89
2022-10-23T14:14:12.408Z,25.88
2022-10-23T14:15:14.118Z,25.77
2022-10-23T14:16:18.163Z,25.81
2022-10-23T14:17:20.770Z,25.72
2022-10-23T14:18:22.604Z,25.66
2022-10-23T14:19:24.307Z,25.63
2022-10-23T14:20:27.888Z,25.56
2022-10-23T14:21:29.710Z,25.63
2022-10-23T14:22:31.406Z,25.59
2022-10-23T14:23:33.150Z,25.59